createdAt,value
2022-11-13T00:05:00.593Z,100700.09
2022-11-13T00:10:05.697Z,100700.02
2022-11-13T00:15:11.029Z,100699.88
2022-11-13T00:20:14.611Z,100694.17
2022-11-13T00:25:18.321Z,100692.33
2022-11-13T00:30:22.252Z,100689.80
2022-11-13T00:35:25.705Z,100681.34
2022-11-13T00:40:29.516Z,100675.20
2022-11-13T00:45:33.216Z,100670.70
2022-11-13T00:50:36.715Z,100673.73
2022-11-13T00:55:40.217Z,100676.58
2022-11-13T01:00:45.769Z,100668.09
2022-11-13T01:05:49.619Z,100664.33
2022-11-13T01:10:53.962Z,100659.84
2022-11-13T01:15:58.078Z,100661.85
2022-11-13T01:21:07.000Z,100660.05
2022-11-13T01:26:12.726Z,100655.58
2022-11-13T01:31:19.582Z,100659.73
2022-11-13T01:36:25.507Z,100658.26
2022-11-13T01:41:31.723Z,100653.03
2022-11-13T01:46:39.104Z,100645.70
2022-11-13T01:51:48.597Z,100639.02
2022-11-13T01:56:52.708Z,100637.61
2022-11-13T02:01:57.388Z,100635.20
2022-11-13T02:07:04.489Z,100633.52
2022-11-13T02:12:10.959Z,100629.65
2022-11-13T02:17:19.619Z,100625.95
2022-11-13T02:22:31.425Z,100621.67
2022-11-13T02:27:38.769Z,100622.92
2022-11-13T02:32:45.230Z,100622.14
2022-11-13T02:37:49.079Z,100625.59
2022-11-13T02:42:52.985Z,100624.89
2022-11-13T02:47:59.477Z,100623.30
2022-11-13T02:53:03.541Z,100621.13
2022-11-13T02:58:07.333Z,100615.23
2022-11-13T03:03:10.917Z,100618.65
2022-11-13T03:08:14.568Z,100618.84
2022-11-13T03:13:18.508Z,100619.87
2022-11-13T03:18:23.658Z,100620.77
2022-11-13T03:23:28.483Z,100630.11
2022-11-13T03:28:32.507Z,100635.83
2022-11-13T03:33:36.234Z,100639.36
2022-11-13T03:38:40.357Z,100644.48
2022-11-13T03:43:44.391Z,100648.39
2022-11-13T03:48:47.931Z,100646.46
2022-11-13T03:53:51.465Z,100646.40
2022-11-13T03:58:55.012Z,100641.40
2022-11-13T04:03:58.705Z,100642.64
2022-11-13T04:09:02.698Z,100639.51
2022-11-13T04:14:06.410Z,100639.52
2022-11-13T04:19:09.994Z,100636.41
2022-11-13T04:24:13.813Z,100644.42
2022-11-13T04:29:17.752Z,100645.08
2022-11-13T04:34:21.749Z,100640.59
2022-11-13T04:39:25.583Z,100644.05
2022-11-13T04:44:29.521Z,100639.74
2022-11-13T04:49:33.088Z,100640.04
2022-11-13T04:54:36.742Z,100635.36
2022-11-13T04:59:40.325Z,100633.92
2022-11-13T05:04:43.872Z,100630.80
2022-11-13T05:09:47.579Z,100629.70
2022-11-13T05:14:51.224Z,100625.34
2022-11-13T05:23:38.971Z,100629.93
2022-11-13T05:28:46.522Z,100633.00
2022-11-13T05:33:53.519Z,100631.72
2022-11-13T05:39:01.818Z,100634.66
2022-11-13T05:44:09.923Z,100628.48
2022-11-13T05:58:58.789Z,100628.36
2022-11-13T06:04:07.357Z,100632.02
2022-11-13T06:09:17.668Z,100626.39
2022-11-13T06:14:24.868Z,100621.66
2022-11-13T06:19:32.367Z,100622.38
2022-11-13T06:24:39.375Z,100626.40
2022-11-13T06:29:47.423Z,100624.41
2022-11-13T06:34:54.481Z,100623.33
2022-11-13T06:40:01.595Z,100624.70
2022-11-13T06:45:07.891Z,100627.06
2022-11-13T06:50:15.929Z,100621.38
2022-11-13T06:55:23.007Z,100619.97
2022-11-13T07:00:36.198Z,100623.88
2022-11-13T07:05:44.434Z,100622.78
2022-11-13T07:10:57.581Z,100617.05
2022-11-13T07:16:16.431Z,100614.98
2022-11-13T07:21:25.905Z,100613.25
2022-11-13T07:26:34.120Z,100615.73
2022-11-13T07:31:41.037Z,100612.71
2022-11-13T07:36:48.116Z,100611.55
2022-11-13T07:41:53.602Z,100610.00
2022-11-13T07:47:00.727Z,100617.42
2022-11-13T07:52:08.134Z,100621.67
2022-11-13T07:57:16.430Z,100619.50
2022-11-13T08:02:26.547Z,100618.85
2022-11-13T08:07:35.159Z,100621.69
2022-11-13T08:12:42.499Z,100616.59
2022-11-13T08:17:56.584Z,100626.25
2022-11-13T08:23:05.639Z,100634.44
2022-11-13T08:28:13.446Z,100634.70
2022-11-13T08:33:20.979Z,100636.88
2022-11-13T08:38:27.440Z,100631.58
2022-11-13T08:43:35.036Z,100635.59
2022-11-13T08:48:42.029Z,100630.40
2022-11-13T08:53:49.180Z,100633.46
2022-11-13T08:58:56.260Z,100634.46
2022-11-13T09:04:03.983Z,100634.96
2022-11-13T09:09:11.353Z,100642.61
2022-11-13T09:14:18.565Z,100639.05
2022-11-13T09:19:23.997Z,100639.49
2022-11-13T09:24:31.730Z,100635.92
2022-11-13T09:29:39.025Z,100630.34
2022-11-13T09:34:46.461Z,100632.17
2022-11-13T09:39:53.622Z,100632.10
2022-11-13T09:45:01.317Z,100626.20
2022-11-13T09:50:18.680Z,100616.92
2022-11-13T09:55:30.522Z,100614.59
2022-11-13T10:00:38.666Z,100614.77
2022-11-13T10:05:55.689Z,100611.95
2022-11-13T10:11:10.924Z,100611.71
2022-11-13T10:16:27.831Z,100604.39
2022-11-13T10:21:38.633Z,100606.11
2022-11-13T10:26:45.956Z,100604.33
2022-11-13T10:31:54.688Z,100592.85
2022-11-13T10:37:26.091Z,100584.02
2022-11-13T10:42:39.913Z,100587.42
2022-11-13T10:48:05.620Z,100586.46
2022-11-13T10:53:19.983Z,100587.44
2022-11-13T10:58:27.989Z,100585.06
2022-11-13T11:03:35.095Z,100587.03
2022-11-13T11:08:42.505Z,100585.45
2022-11-13T11:13:49.493Z,100580.44
2022-11-13T11:19:02.756Z,100581.42
2022-11-13T11:24:18.329Z,100579.69
2022-11-13T11:29:33.461Z,100568.10
2022-11-13T11:34:45.763Z,100565.55
2022-11-13T11:39:59.532Z,100561.06
2022-11-13T11:45:15.636Z,100551.67
2022-11-13T11:50:38.266Z,100545.00
2022-11-13T11:56:02.768Z,100535.63
2022-11-13T12:01:23.178Z,100524.20
2022-11-13T12:06:47.205Z,100515.63
2022-11-13T12:12:03.524Z,100516.63
2022-11-13T12:17:23.709Z,100520.55
2022-11-13T12:22:43.834Z,100523.08
2022-11-13T12:27:58.584Z,100518.34
2022-11-13T12:33:23.172Z,100508.93
2022-11-13T12:38:40.827Z,100497.60
2022-11-13T12:44:11.671Z,100491.52
2022-11-13T12:49:32.184Z,100485.89
2022-11-13T12:54:40.548Z,100484.06
2022-11-13T12:59:50.580Z,100479.91
2022-11-13T13:05:08.740Z,100476.67
2022-11-13T13:10:23.996Z,100475.75
2022-11-13T13:15:37.743Z,100473.96
2022-11-13T13:20:59.746Z,100469.06
2022-11-13T13:26:16.254Z,100472.53
2022-11-13T13:31:38.509Z,100464.05
2022-11-13T13:36:52.889Z,100461.55
2022-11-13T13:42:23.944Z,100458.73
2022-11-13T13:47:34.835Z,100461.02
2022-11-13T13:52:44.559Z,100455.61
2022-11-13T13:57:51.884Z,100452.80
2022-11-13T14:02:58.981Z,100444.53
2022-11-13T14:08:07.807Z,100444.77
2022-11-13T14:13:23.914Z,100443.52
2022-11-13T14:18:32.039Z,100437.23
2022-11-13T14:23:42.645Z,100428.58
2022-11-13T14:28:57.147Z,100425.52
2022-11-13T14:34:10.119Z,100417.67
2022-11-13T14:39:25.071Z,100416.36
2022-11-13T14:44:34.858Z,100417.30
2022-11-13T14:49:41.770Z,100421.43
2022-11-13T14:55:13.768Z,100418.86
2022-11-13T15:00:19.402Z,100416.58
2022-11-13T15:05:26.514Z,100411.02
2022-11-13T15:10:32.583Z,100413.70
2022-11-13T15:15:40.033Z,100415.67
2022-11-13T15:20:47.817Z,100413.62
2022-11-13T15:25:54.873Z,100418.09
2022-11-13T15:31:00.354Z,100419.80
2022-11-13T15:36:09.913Z,100415.52
2022-11-13T15:41:20.006Z,100416.43
2022-11-13T15:46:27.431Z,100411.67
2022-11-13T15:51:37.696Z,100418.95
2022-11-13T15:58:55.947Z,100422.27
2022-11-13T16:04:05.942Z,100427.61
2022-11-13T16:09:16.487Z,100427.68
2022-11-13T16:14:25.215Z,100426.34
2022-11-13T16:19:33.469Z,100424.44
2022-11-13T16:24:40.460Z,100420.42
2022-11-13T16:29:47.473Z,100418.71
2022-11-13T16:34:54.773Z,100421.71
2022-11-13T16:40:00.346Z,100416.41
2022-11-13T16:45:08.764Z,100412.91
2022-11-13T16:50:22.163Z,100413.84
2022-11-13T16:55:31.833Z,100410.34
2022-11-13T17:00:40.982Z,100402.61
2022-11-13T17:05:52.550Z,100395.97
2022-11-13T17:11:00.877Z,100400.23
2022-11-13T17:16:08.888Z,100402.58
2022-11-13T17:21:16.128Z,100401.05
2022-11-13T17:26:23.983Z,100400.96
2022-11-13T17:31:31.350Z,100396.16
2022-11-13T17:36:38.978Z,100394.20
2022-11-13T17:41:46.466Z,100386.30
2022-11-13T17:46:54.074Z,100386.94
2022-11-13T17:52:01.382Z,100383.63
2022-11-13T17:57:11.085Z,100388.40
2022-11-13T18:02:20.596Z,100384.51
2022-11-13T18:07:29.168Z,100386.79
2022-11-13T18:12:36.952Z,100375.77
2022-11-13T18:17:45.079Z,100373.56
2022-11-13T18:22:52.381Z,100380.35
2022-11-13T18:27:59.589Z,100377.86
2022-11-13T18:33:05.046Z,100386.33
2022-11-13T18:38:12.570Z,100384.67
2022-11-13T18:43:19.674Z,100387.67
2022-11-13T18:48:25.338Z,100385.15
2022-11-13T18:53:32.458Z,100376.70
2022-11-13T18:58:41.592Z,100373.06
2022-11-13T19:04:08.287Z,100374.32
2022-11-13T19:09:17.712Z,100372.33
2022-11-13T19:14:25.210Z,100381.71
2022-11-13T19:19:33.222Z,100382.17
2022-11-13T19:24:40.325Z,100387.31
2022-11-13T19:29:47.562Z,100387.42
2022-11-13T19:34:55.251Z,100381.58
2022-11-13T19:40:02.357Z,100385.38
2022-11-13T19:45:09.231Z,100378.73
2022-11-13T19:50:16.877Z,100373.50
2022-11-13T19:55:23.988Z,100371.34
2022-11-13T20:00:31.290Z,100367.95
2022-11-13T20:05:42.893Z,100369.41
2022-11-13T20:10:49.891Z,100364.55
2022-11-13T20:15:57.532Z,100362.18
2022-11-13T20:21:05.842Z,100361.65
2022-11-13T20:26:16.794Z,100361.45
2022-11-13T20:31:25.815Z,100356.13
2022-11-13T20:36:32.792Z,100358.48
2022-11-13T20:41:41.648Z,100356.60
2022-11-13T20:46:48.587Z,100351.11
2022-11-13T20:51:58.694Z,100349.16
2022-11-13T20:57:05.996Z,100342.33
2022-11-13T21:02:11.722Z,100332.89
2022-11-13T21:07:19.020Z,100343.00
2022-11-13T21:12:26.597Z,100348.06
2022-11-13T21:17:33.783Z,100354.48
2022-11-13T21:22:40.893Z,100363.17
2022-11-13T21:27:46.449Z,100360.19
2022-11-13T21:32:53.452Z,100356.67
2022-11-13T21:38:00.466Z,100356.14
2022-11-13T21:43:06.021Z,100349.11
2022-11-13T21:48:13.088Z,100348.63
2022-11-13T21:53:18.588Z,100344.38
2022-11-13T21:58:33.500Z,100340.64
2022-11-13T22:03:41.115Z,100345.05
2022-11-13T22:08:54.980Z,100331.64
2022-11-13T22:14:05.437Z,100328.65
2022-11-13T22:19:15.466Z,100323.23
2022-11-13T22:24:22.600Z,100316.84
2022-11-13T22:29:29.702Z,100313.90
2022-11-13T22:34:35.170Z,100308.30
2022-11-13T22:39:42.283Z,100302.76
2022-11-13T22:44:56.124Z,100305.36
2022-11-13T22:50:03.693Z,100302.38
2022-11-13T22:55:11.505Z,100306.42
2022-11-13T23:00:20.044Z,100303.91
2022-11-13T23:05:27.034Z,100299.49
2022-11-13T23:10:34.089Z,100294.26
2022-11-13T23:15:39.696Z,100293.39
2022-11-13T23:20:48.905Z,100288.66
2022-11-13T23:25:55.906Z,100280.77
2022-11-13T23:31:01.689Z,100281.10
2022-11-13T23:36:11.046Z,100283.77
2022-11-13T23:41:18.446Z,100291.09
2022-11-13T23:46:25.349Z,100292.06
2022-11-13T23:51:32.398Z,100289.80
2022-11-13T23:56:39.370Z,100285.95
